sensor_id;sensor_type;location;lat;lon;timestamp;P1;durP1;ratioP1;P2;durP2;ratioP2
56718;SDS011;42597;40.636;0.278;2023-11-19T00:02:07;4.72;;;2.33;;
56718;SDS011;42597;40.636;0.278;2023-11-19T00:04:36;5.40;;;2.65;;
56718;SDS011;42597;40.636;0.278;2023-11-19T00:07:02;4.38;;;2.47;;
56718;SDS011;42597;40.636;0.278;2023-11-19T00:09:30;4.65;;;2.08;;
56718;SDS011;42597;40.636;0.278;2023-11-19T00:11:56;4.32;;;2.20;;
56718;SDS011;42597;40.636;0.278;2023-11-19T00:14:22;4.80;;;2.15;;
56718;SDS011;42597;40.636;0.278;2023-11-19T00:16:49;1.70;;;1.10;;
56718;SDS011;42597;40.636;0.278;2023-11-19T00:19:16;3.70;;;1.80;;
56718;SDS011;42597;40.636;0.278;2023-11-19T00:21:42;4.03;;;1.55;;
56718;SDS011;42597;40.636;0.278;2023-11-19T00:24:08;2.75;;;1.48;;
56718;SDS011;42597;40.636;0.278;2023-11-19T00:26:33;3.42;;;2.25;;
56718;SDS011;42597;40.636;0.278;2023-11-19T00:28:59;3.75;;;1.80;;
56718;SDS011;42597;40.636;0.278;2023-11-19T00:31:25;5.90;;;2.22;;
56718;SDS011;42597;40.636;0.278;2023-11-19T00:33:53;4.57;;;1.63;;
56718;SDS011;42597;40.636;0.278;2023-11-19T00:36:19;2.55;;;1.55;;
56718;SDS011;42597;40.636;0.278;2023-11-19T00:38:44;4.47;;;2.15;;
56718;SDS011;42597;40.636;0.278;2023-11-19T00:41:10;3.55;;;1.70;;
56718;SDS011;42597;40.636;0.278;2023-11-19T00:43:35;5.00;;;2.25;;
56718;SDS011;42597;40.636;0.278;2023-11-19T00:46:01;3.17;;;1.83;;
56718;SDS011;42597;40.636;0.278;2023-11-19T00:48:28;5.10;;;2.47;;
56718;SDS011;42597;40.636;0.278;2023-11-19T00:50:54;3.63;;;1.83;;
56718;SDS011;42597;40.636;0.278;2023-11-19T00:53:19;2.78;;;1.25;;
56718;SDS011;42597;40.636;0.278;2023-11-19T00:55:45;2.95;;;1.58;;
56718;SDS011;42597;40.636;0.278;2023-11-19T00:58:10;2.90;;;1.67;;
56718;SDS011;42597;40.636;0.278;2023-11-19T01:00:36;1.63;;;1.23;;
56718;SDS011;42597;40.636;0.278;2023-11-19T01:03:01;4.40;;;2.25;;
56718;SDS011;42597;40.636;0.278;2023-11-19T01:05:27;3.97;;;1.48;;
56718;SDS011;42597;40.636;0.278;2023-11-19T01:07:53;3.65;;;1.63;;
56718;SDS011;42597;40.636;0.278;2023-11-19T01:10:19;1.30;;;0.90;;
56718;SDS011;42597;40.636;0.278;2023-11-19T01:12:45;4.85;;;1.52;;
56718;SDS011;42597;40.636;0.278;2023-11-19T01:15:11;2.60;;;1.30;;
56718;SDS011;42597;40.636;0.278;2023-11-19T01:17:38;3.78;;;1.88;;
56718;SDS011;42597;40.636;0.278;2023-11-19T01:20:04;2.17;;;1.40;;
56718;SDS011;42597;40.636;0.278;2023-11-19T01:22:32;3.15;;;1.52;;
56718;SDS011;42597;40.636;0.278;2023-11-19T01:24:58;6.05;;;1.63;;
56718;SDS011;42597;40.636;0.278;2023-11-19T01:27:24;3.55;;;1.63;;
56718;SDS011;42597;40.636;0.278;2023-11-19T01:29:50;2.08;;;1.08;;
56718;SDS011;42597;40.636;0.278;2023-11-19T01:32:15;3.85;;;1.63;;
56718;SDS011;42597;40.636;0.278;2023-11-19T01:34:41;3.08;;;1.17;;
56718;SDS011;42597;40.636;0.278;2023-11-19T01:37:06;3.58;;;1.48;;
56718;SDS011;42597;40.636;0.278;2023-11-19T01:39:34;1.75;;;1.20;;
56718;SDS011;42597;40.636;0.278;2023-11-19T01:42:00;2.20;;;1.25;;
56718;SDS011;42597;40.636;0.278;2023-11-19T01:44:25;2.92;;;1.60;;
56718;SDS011;42597;40.636;0.278;2023-11-19T01:46:51;2.53;;;1.35;;
56718;SDS011;42597;40.636;0.278;2023-11-19T01:49:17;3.58;;;1.52;;
56718;SDS011;42597;40.636;0.278;2023-11-19T01:51:45;3.40;;;1.42;;
56718;SDS011;42597;40.636;0.278;2023-11-19T01:54:12;1.73;;;1.15;;
56718;SDS011;42597;40.636;0.278;2023-11-19T01:56:38;2.55;;;1.10;;
56718;SDS011;42597;40.636;0.278;2023-11-19T01:59:06;2.38;;;1.20;;
56718;SDS011;42597;40.636;0.278;2023-11-19T02:01:34;2.60;;;1.38;;
56718;SDS011;42597;40.636;0.278;2023-11-19T02:04:04;2.50;;;1.42;;
56718;SDS011;42597;40.636;0.278;2023-11-19T02:06:34;2.13;;;1.13;;
56718;SDS011;42597;40.636;0.278;2023-11-19T02:09:02;4.55;;;1.85;;
56718;SDS011;42597;40.636;0.278;2023-11-19T02:11:33;1.92;;;1.00;;
56718;SDS011;42597;40.636;0.278;2023-11-19T02:14:00;5.57;;;1.90;;
56718;SDS011;42597;40.636;0.278;2023-11-19T02:16:26;2.30;;;1.30;;
56718;SDS011;42597;40.636;0.278;2023-11-19T02:18:53;2.83;;;1.40;;
56718;SDS011;42597;40.636;0.278;2023-11-19T02:21:18;2.13;;;1.10;;
56718;SDS011;42597;40.636;0.278;2023-11-19T02:23:44;2.60;;;1.17;;
56718;SDS011;42597;40.636;0.278;2023-11-19T02:26:32;2.38;;;1.35;;
56718;SDS011;42597;40.636;0.278;2023-11-19T02:29:09;3.03;;;0.98;;
56718;SDS011;42597;40.636;0.278;2023-11-19T02:31:34;1.70;;;1.23;;
56718;SDS011;42597;40.636;0.278;2023-11-19T02:34:00;2.30;;;0.90;;
56718;SDS011;42597;40.636;0.278;2023-11-19T02:36:27;1.38;;;0.90;;
56718;SDS011;42597;40.636;0.278;2023-11-19T02:38:53;2.33;;;1.40;;
56718;SDS011;42597;40.636;0.278;2023-11-19T02:41:18;2.13;;;1.10;;
56718;SDS011;42597;40.636;0.278;2023-11-19T02:43:45;2.30;;;1.20;;
56718;SDS011;42597;40.636;0.278;2023-11-19T02:46:12;3.63;;;1.43;;
56718;SDS011;42597;40.636;0.278;2023-11-19T02:48:38;2.45;;;1.33;;
56718;SDS011;42597;40.636;0.278;2023-11-19T02:51:04;2.88;;;1.38;;
56718;SDS011;42597;40.636;0.278;2023-11-19T02:53:34;3.78;;;1.55;;
56718;SDS011;42597;40.636;0.278;2023-11-19T02:56:00;2.72;;;1.35;;
56718;SDS011;42597;40.636;0.278;2023-11-19T02:58:37;2.28;;;1.27;;
56718;SDS011;42597;40.636;0.278;2023-11-19T03:01:04;1.52;;;1.10;;
56718;SDS011;42597;40.636;0.278;2023-11-19T03:03:38;2.65;;;1.13;;
56718;SDS011;42597;40.636;0.278;2023-11-19T03:06:05;2.38;;;0.93;;
56718;SDS011;42597;40.636;0.278;2023-11-19T03:08:32;2.28;;;1.15;;
56718;SDS011;42597;40.636;0.278;2023-11-19T03:10:58;2.15;;;1.35;;
56718;SDS011;42597;40.636;0.278;2023-11-19T03:13:24;2.03;;;1.30;;
56718;SDS011;42597;40.636;0.278;2023-11-19T03:15:49;2.47;;;1.20;;
56718;SDS011;42597;40.636;0.278;2023-11-19T03:18:16;3.00;;;1.45;;
56718;SDS011;42597;40.636;0.278;2023-11-19T03:20:42;1.70;;;1.08;;
56718;SDS011;42597;40.636;0.278;2023-11-19T03:23:07;1.63;;;1.08;;
56718;SDS011;42597;40.636;0.278;2023-11-19T03:25:33;1.83;;;0.90;;
56718;SDS011;42597;40.636;0.278;2023-11-19T03:27:59;2.00;;;0.90;;
56718;SDS011;42597;40.636;0.278;2023-11-19T03:30:29;1.92;;;0.90;;
56718;SDS011;42597;40.636;0.278;2023-11-19T03:32:55;1.58;;;1.10;;
56718;SDS011;42597;40.636;0.278;2023-11-19T03:35:22;1.92;;;1.00;;
56718;SDS011;42597;40.636;0.278;2023-11-19T03:37:50;4.10;;;1.42;;
56718;SDS011;42597;40.636;0.278;2023-11-19T03:40:17;2.05;;;1.20;;
56718;SDS011;42597;40.636;0.278;2023-11-19T03:42:44;3.03;;;1.30;;
56718;SDS011;42597;40.636;0.278;2023-11-19T03:45:10;3.58;;;1.60;;
56718;SDS011;42597;40.636;0.278;2023-11-19T03:47:36;2.58;;;1.10;;
56718;SDS011;42597;40.636;0.278;2023-11-19T03:50:02;1.05;;;0.75;;
56718;SDS011;42597;40.636;0.278;2023-11-19T03:52:29;3.00;;;1.00;;
56718;SDS011;42597;40.636;0.278;2023-11-19T03:54:55;2.05;;;1.30;;
56718;SDS011;42597;40.636;0.278;2023-11-19T03:57:22;1.60;;;0.90;;
56718;SDS011;42597;40.636;0.278;2023-11-19T03:59:47;2.00;;;1.23;;
56718;SDS011;42597;40.636;0.278;2023-11-19T04:02:13;2.47;;;1.38;;
56718;SDS011;42597;40.636;0.278;2023-11-19T04:04:39;2.90;;;0.90;;
56718;SDS011;42597;40.636;0.278;2023-11-19T04:07:05;1.98;;;1.02;;
56718;SDS011;42597;40.636;0.278;2023-11-19T04:09:30;2.30;;;1.08;;
56718;SDS011;42597;40.636;0.278;2023-11-19T04:11:58;2.10;;;1.17;;
56718;SDS011;42597;40.636;0.278;2023-11-19T04:14:24;2.25;;;1.02;;
56718;SDS011;42597;40.636;0.278;2023-11-19T04:16:50;3.17;;;1.15;;
56718;SDS011;42597;40.636;0.278;2023-11-19T04:19:16;1.65;;;1.00;;
56718;SDS011;42597;40.636;0.278;2023-11-19T04:21:42;2.92;;;1.27;;
56718;SDS011;42597;40.636;0.278;2023-11-19T04:24:08;1.75;;;1.10;;
56718;SDS011;42597;40.636;0.278;2023-11-19T04:26:46;2.30;;;1.38;;
56718;SDS011;42597;40.636;0.278;2023-11-19T04:29:12;1.80;;;1.05;;
56718;SDS011;42597;40.636;0.278;2023-11-19T04:31:38;6.20;;;3.47;;
56718;SDS011;42597;40.636;0.278;2023-11-19T04:34:04;3.08;;;1.50;;
56718;SDS011;42597;40.636;0.278;2023-11-19T04:36:31;1.95;;;1.02;;
56718;SDS011;42597;40.636;0.278;2023-11-19T04:38:58;1.52;;;1.10;;
56718;SDS011;42597;40.636;0.278;2023-11-19T04:41:25;2.90;;;1.70;;
56718;SDS011;42597;40.636;0.278;2023-11-19T04:43:53;3.13;;;1.30;;
56718;SDS011;42597;40.636;0.278;2023-11-19T04:46:19;2.25;;;1.40;;
56718;SDS011;42597;40.636;0.278;2023-11-19T04:48:44;3.58;;;1.40;;
56718;SDS011;42597;40.636;0.278;2023-11-19T04:51:10;2.75;;;1.42;;
56718;SDS011;42597;40.636;0.278;2023-11-19T04:53:36;4.00;;;1.35;;
56718;SDS011;42597;40.636;0.278;2023-11-19T04:56:07;2.90;;;1.25;;
56718;SDS011;42597;40.636;0.278;2023-11-19T04:58:34;2.33;;;1.63;;
56718;SDS011;42597;40.636;0.278;2023-11-19T05:01:01;2.10;;;1.20;;
56718;SDS011;42597;40.636;0.278;2023-11-19T05:03:26;4.47;;;2.05;;
56718;SDS011;42597;40.636;0.278;2023-11-19T05:05:52;1.65;;;0.98;;
56718;SDS011;42597;40.636;0.278;2023-11-19T05:08:18;3.03;;;1.42;;
56718;SDS011;42597;40.636;0.278;2023-11-19T05:10:44;1.92;;;0.90;;
56718;SDS011;42597;40.636;0.278;2023-11-19T05:13:10;1.00;;;0.60;;
56718;SDS011;42597;40.636;0.278;2023-11-19T05:15:35;1.67;;;1.10;;
56718;SDS011;42597;40.636;0.278;2023-11-19T05:18:01;2.72;;;1.15;;
56718;SDS011;42597;40.636;0.278;2023-11-19T05:20:26;1.50;;;0.90;;
56718;SDS011;42597;40.636;0.278;2023-11-19T05:22:52;1.92;;;1.00;;
56718;SDS011;42597;40.636;0.278;2023-11-19T05:25:18;2.28;;;1.13;;
56718;SDS011;42597;40.636;0.278;2023-11-19T05:27:45;2.00;;;0.90;;
56718;SDS011;42597;40.636;0.278;2023-11-19T05:30:11;2.38;;;1.13;;
56718;SDS011;42597;40.636;0.278;2023-11-19T05:32:37;2.67;;;1.00;;
56718;SDS011;42597;40.636;0.278;2023-11-19T05:35:02;4.40;;;1.52;;
56718;SDS011;42597;40.636;0.278;2023-11-19T05:37:28;3.15;;;1.33;;
56718;SDS011;42597;40.636;0.278;2023-11-19T05:39:54;5.82;;;2.80;;
56718;SDS011;42597;40.636;0.278;2023-11-19T05:42:19;3.72;;;2.00;;
56718;SDS011;42597;40.636;0.278;2023-11-19T05:44:45;3.28;;;1.42;;
56718;SDS011;42597;40.636;0.278;2023-11-19T05:47:11;2.45;;;1.20;;
56718;SDS011;42597;40.636;0.278;2023-11-19T05:49:37;1.08;;;0.80;;
56718;SDS011;42597;40.636;0.278;2023-11-19T05:52:03;1.23;;;0.85;;
56718;SDS011;42597;40.636;0.278;2023-11-19T05:54:32;0.95;;;0.90;;
56718;SDS011;42597;40.636;0.278;2023-11-19T05:57:03;1.20;;;0.80;;
56718;SDS011;42597;40.636;0.278;2023-11-19T05:59:34;4.05;;;1.17;;
56718;SDS011;42597;40.636;0.278;2023-11-19T06:02:01;2.63;;;1.15;;
56718;SDS011;42597;40.636;0.278;2023-11-19T06:04:27;2.97;;;1.42;;
56718;SDS011;42597;40.636;0.278;2023-11-19T06:06:53;3.05;;;1.63;;
56718;SDS011;42597;40.636;0.278;2023-11-19T06:09:20;3.05;;;1.42;;
56718;SDS011;42597;40.636;0.278;2023-11-19T06:11:48;3.90;;;1.67;;
56718;SDS011;42597;40.636;0.278;2023-11-19T06:14:16;3.42;;;1.05;;
56718;SDS011;42597;40.636;0.278;2023-11-19T06:16:41;5.90;;;1.63;;
56718;SDS011;42597;40.636;0.278;2023-11-19T06:19:07;1.20;;;0.90;;
56718;SDS011;42597;40.636;0.278;2023-11-19T06:21:33;1.33;;;0.77;;
56718;SDS011;42597;40.636;0.278;2023-11-19T06:23:58;2.30;;;1.05;;
56718;SDS011;42597;40.636;0.278;2023-11-19T06:26:24;3.95;;;1.30;;
56718;SDS011;42597;40.636;0.278;2023-11-19T06:28:49;2.67;;;0.98;;
56718;SDS011;42597;40.636;0.278;2023-11-19T06:31:15;2.70;;;1.10;;
56718;SDS011;42597;40.636;0.278;2023-11-19T06:33:41;1.30;;;0.90;;
56718;SDS011;42597;40.636;0.278;2023-11-19T06:36:07;5.32;;;0.98;;
56718;SDS011;42597;40.636;0.278;2023-11-19T06:38:34;3.65;;;1.38;;
56718;SDS011;42597;40.636;0.278;2023-11-19T06:41:00;1.55;;;1.13;;
56718;SDS011;42597;40.636;0.278;2023-11-19T06:43:26;2.35;;;1.13;;
56718;SDS011;42597;40.636;0.278;2023-11-19T06:45:53;1.17;;;0.90;;
56718;SDS011;42597;40.636;0.278;2023-11-19T06:48:19;1.58;;;0.80;;
56718;SDS011;42597;40.636;0.278;2023-11-19T06:50:45;2.83;;;1.02;;
56718;SDS011;42597;40.636;0.278;2023-11-19T06:53:10;1.98;;;1.27;;
56718;SDS011;42597;40.636;0.278;2023-11-19T06:55:36;2.58;;;1.00;;
56718;SDS011;42597;40.636;0.278;2023-11-19T06:58:02;2.58;;;1.70;;
56718;SDS011;42597;40.636;0.278;2023-11-19T07:00:28;3.97;;;1.17;;
56718;SDS011;42597;40.636;0.278;2023-11-19T07:02:54;2.28;;;0.90;;
56718;SDS011;42597;40.636;0.278;2023-11-19T07:05:20;2.00;;;1.10;;
56718;SDS011;42597;40.636;0.278;2023-11-19T07:07:46;2.20;;;1.20;;
56718;SDS011;42597;40.636;0.278;2023-11-19T07:10:12;0.80;;;0.70;;
56718;SDS011;42597;40.636;0.278;2023-11-19T07:12:38;3.17;;;0.80;;
56718;SDS011;42597;40.636;0.278;2023-11-19T07:15:04;2.92;;;1.00;;
56718;SDS011;42597;40.636;0.278;2023-11-19T07:17:30;2.67;;;1.23;;
56718;SDS011;42597;40.636;0.278;2023-11-19T07:19:56;5.97;;;1.95;;
56718;SDS011;42597;40.636;0.278;2023-11-19T07:22:25;2.70;;;1.47;;
56718;SDS011;42597;40.636;0.278;2023-11-19T07:24:51;3.83;;;1.73;;
56718;SDS011;42597;40.636;0.278;2023-11-19T07:27:18;4.05;;;1.70;;
56718;SDS011;42597;40.636;0.278;2023-11-19T07:29:44;3.50;;;1.10;;
56718;SDS011;42597;40.636;0.278;2023-11-19T07:32:10;7.20;;;1.27;;
56718;SDS011;42597;40.636;0.278;2023-11-19T07:34:36;1.08;;;0.75;;
56718;SDS011;42597;40.636;0.278;2023-11-19T07:37:01;2.05;;;1.10;;
56718;SDS011;42597;40.636;0.278;2023-11-19T07:39:30;2.25;;;1.02;;
56718;SDS011;42597;40.636;0.278;2023-11-19T07:41:56;2.42;;;1.20;;
56718;SDS011;42597;40.636;0.278;2023-11-19T07:44:22;1.55;;;0.90;;
56718;SDS011;42597;40.636;0.278;2023-11-19T07:46:47;2.17;;;1.13;;
56718;SDS011;42597;40.636;0.278;2023-11-19T07:49:13;1.60;;;1.02;;
56718;SDS011;42597;40.636;0.278;2023-11-19T07:51:39;1.50;;;0.75;;
56718;SDS011;42597;40.636;0.278;2023-11-19T07:54:05;2.88;;;1.50;;
56718;SDS011;42597;40.636;0.278;2023-11-19T07:56:34;1.25;;;0.90;;
56718;SDS011;42597;40.636;0.278;2023-11-19T07:59:01;2.95;;;1.42;;
56718;SDS011;42597;40.636;0.278;2023-11-19T08:01:27;1.77;;;0.88;;
56718;SDS011;42597;40.636;0.278;2023-11-19T08:03:52;1.92;;;0.70;;
56718;SDS011;42597;40.636;0.278;2023-11-19T08:06:19;3.13;;;1.95;;
56718;SDS011;42597;40.636;0.278;2023-11-19T08:08:44;6.45;;;3.80;;
56718;SDS011;42597;40.636;0.278;2023-11-19T08:11:10;7.03;;;4.00;;
56718;SDS011;42597;40.636;0.278;2023-11-19T08:13:35;6.28;;;3.90;;
56718;SDS011;42597;40.636;0.278;2023-11-19T08:16:01;6.75;;;4.38;;
56718;SDS011;42597;40.636;0.278;2023-11-19T08:18:27;10.93;;;5.40;;
56718;SDS011;42597;40.636;0.278;2023-11-19T08:20:52;5.88;;;3.47;;
56718;SDS011;42597;40.636;0.278;2023-11-19T08:23:19;5.78;;;3.22;;
56718;SDS011;42597;40.636;0.278;2023-11-19T08:25:45;7.75;;;4.35;;
56718;SDS011;42597;40.636;0.278;2023-11-19T08:28:10;8.05;;;5.25;;
56718;SDS011;42597;40.636;0.278;2023-11-19T08:30:36;10.52;;;5.70;;
56718;SDS011;42597;40.636;0.278;2023-11-19T08:33:01;7.60;;;4.43;;
56718;SDS011;42597;40.636;0.278;2023-11-19T08:35:31;10.75;;;3.75;;
56718;SDS011;42597;40.636;0.278;2023-11-19T08:37:57;5.35;;;2.38;;
56718;SDS011;42597;40.636;0.278;2023-11-19T08:40:24;6.57;;;2.72;;
56718;SDS011;42597;40.636;0.278;2023-11-19T08:42:51;5.85;;;2.15;;
56718;SDS011;42597;40.636;0.278;2023-11-19T08:45:17;2.65;;;1.40;;
56718;SDS011;42597;40.636;0.278;2023-11-19T08:47:43;3.22;;;1.65;;
56718;SDS011;42597;40.636;0.278;2023-11-19T08:50:10;4.93;;;2.35;;
56718;SDS011;42597;40.636;0.278;2023-11-19T08:52:36;3.42;;;2.03;;
56718;SDS011;42597;40.636;0.278;2023-11-19T08:55:02;7.47;;;2.30;;
56718;SDS011;42597;40.636;0.278;2023-11-19T08:57:30;3.15;;;1.27;;
56718;SDS011;42597;40.636;0.278;2023-11-19T08:59:55;4.35;;;1.38;;
56718;SDS011;42597;40.636;0.278;2023-11-19T09:02:21;3.45;;;1.67;;
56718;SDS011;42597;40.636;0.278;2023-11-19T09:04:47;8.18;;;1.63;;
56718;SDS011;42597;40.636;0.278;2023-11-19T09:07:13;1.50;;;0.98;;
56718;SDS011;42597;40.636;0.278;2023-11-19T09:09:38;3.08;;;1.52;;
56718;SDS011;42597;40.636;0.278;2023-11-19T09:12:04;2.85;;;1.45;;
56718;SDS011;42597;40.636;0.278;2023-11-19T09:14:30;2.47;;;1.33;;
56718;SDS011;42597;40.636;0.278;2023-11-19T09:16:56;6.10;;;1.70;;
56718;SDS011;42597;40.636;0.278;2023-11-19T09:19:21;7.35;;;2.17;;
56718;SDS011;42597;40.636;0.278;2023-11-19T09:21:47;3.78;;;1.80;;
56718;SDS011;42597;40.636;0.278;2023-11-19T09:24:14;5.28;;;1.90;;
56718;SDS011;42597;40.636;0.278;2023-11-19T09:26:41;4.72;;;2.08;;
56718;SDS011;42597;40.636;0.278;2023-11-19T09:29:10;4.15;;;2.22;;
56718;SDS011;42597;40.636;0.278;2023-11-19T09:31:37;5.10;;;2.33;;
56718;SDS011;42597;40.636;0.278;2023-11-19T09:34:03;5.70;;;3.22;;
56718;SDS011;42597;40.636;0.278;2023-11-19T09:36:28;7.03;;;2.60;;
56718;SDS011;42597;40.636;0.278;2023-11-19T09:38:54;7.82;;;3.25;;
56718;SDS011;42597;40.636;0.278;2023-11-19T09:41:20;8.50;;;3.08;;
56718;SDS011;42597;40.636;0.278;2023-11-19T09:43:46;8.88;;;3.33;;
56718;SDS011;42597;40.636;0.278;2023-11-19T09:46:15;6.03;;;1.80;;
56718;SDS011;42597;40.636;0.278;2023-11-19T09:48:41;7.75;;;2.35;;
56718;SDS011;42597;40.636;0.278;2023-11-19T09:51:08;4.05;;;2.15;;
56718;SDS011;42597;40.636;0.278;2023-11-19T09:53:36;11.40;;;4.93;;
56718;SDS011;42597;40.636;0.278;2023-11-19T09:56:03;6.53;;;3.35;;
56718;SDS011;42597;40.636;0.278;2023-11-19T09:58:33;7.72;;;4.25;;
56718;SDS011;42597;40.636;0.278;2023-11-19T10:00:59;9.55;;;4.63;;
56718;SDS011;42597;40.636;0.278;2023-11-19T10:03:27;9.35;;;4.75;;
56718;SDS011;42597;40.636;0.278;2023-11-19T10:05:58;7.85;;;3.85;;
56718;SDS011;42597;40.636;0.278;2023-11-19T10:08:25;12.18;;;3.58;;
56718;SDS011;42597;40.636;0.278;2023-11-19T10:10:51;10.18;;;3.60;;
56718;SDS011;42597;40.636;0.278;2023-11-19T10:13:17;5.03;;;2.10;;
56718;SDS011;42597;40.636;0.278;2023-11-19T10:15:43;8.13;;;3.63;;
56718;SDS011;42597;40.636;0.278;2023-11-19T10:18:09;7.25;;;3.53;;
56718;SDS011;42597;40.636;0.278;2023-11-19T10:20:40;7.60;;;4.03;;
56718;SDS011;42597;40.636;0.278;2023-11-19T10:23:06;8.25;;;3.65;;
56718;SDS011;42597;40.636;0.278;2023-11-19T10:25:32;7.95;;;3.63;;
56718;SDS011;42597;40.636;0.278;2023-11-19T10:27:59;9.07;;;3.05;;
56718;SDS011;42597;40.636;0.278;2023-11-19T10:30:29;9.73;;;4.60;;
56718;SDS011;42597;40.636;0.278;2023-11-19T10:35:52;11.35;;;4.40;;
56718;SDS011;42597;40.636;0.278;2023-11-19T10:38:19;8.80;;;4.05;;
56718;SDS011;42597;40.636;0.278;2023-11-19T10:40:47;7.33;;;4.07;;
56718;SDS011;42597;40.636;0.278;2023-11-19T10:43:13;8.27;;;4.38;;
56718;SDS011;42597;40.636;0.278;2023-11-19T10:45:39;6.38;;;3.50;;
56718;SDS011;42597;40.636;0.278;2023-11-19T10:48:05;5.95;;;3.53;;
56718;SDS011;42597;40.636;0.278;2023-11-19T10:50:38;6.00;;;3.08;;
56718;SDS011;42597;40.636;0.278;2023-11-19T10:53:06;8.63;;;4.60;;
56718;SDS011;42597;40.636;0.278;2023-11-19T10:55:34;7.45;;;3.75;;
56718;SDS011;42597;40.636;0.278;2023-11-19T10:58:01;10.85;;;4.25;;
56718;SDS011;42597;40.636;0.278;2023-11-19T11:00:29;5.83;;;3.40;;
56718;SDS011;42597;40.636;0.278;2023-11-19T11:02:59;7.10;;;4.18;;
56718;SDS011;42597;40.636;0.278;2023-11-19T11:05:26;11.32;;;4.70;;
56718;SDS011;42597;40.636;0.278;2023-11-19T11:07:52;7.82;;;3.33;;
56718;SDS011;42597;40.636;0.278;2023-11-19T11:10:22;7.53;;;4.40;;
56718;SDS011;42597;40.636;0.278;2023-11-19T11:12:51;6.00;;;3.33;;
56718;SDS011;42597;40.636;0.278;2023-11-19T11:15:32;4.68;;;2.40;;
56718;SDS011;42597;40.636;0.278;2023-11-19T11:18:01;9.55;;;3.63;;
56718;SDS011;42597;40.636;0.278;2023-11-19T11:20:31;6.57;;;3.70;;
56718;SDS011;42597;40.636;0.278;2023-11-19T11:28:59;9.40;;;5.20;;
56718;SDS011;42597;40.636;0.278;2023-11-19T11:39:59;6.78;;;3.83;;
56718;SDS011;42597;40.636;0.278;2023-11-19T11:42:31;6.43;;;4.03;;
56718;SDS011;42597;40.636;0.278;2023-11-19T11:45:03;7.40;;;2.78;;
56718;SDS011;42597;40.636;0.278;2023-11-19T11:50:09;5.55;;;2.85;;
56718;SDS011;42597;40.636;0.278;2023-11-19T11:55:25;6.95;;;3.38;;
56718;SDS011;42597;40.636;0.278;2023-11-19T11:57:59;7.05;;;3.63;;
56718;SDS011;42597;40.636;0.278;2023-11-19T12:00:41;7.43;;;3.75;;
56718;SDS011;42597;40.636;0.278;2023-11-19T12:03:10;8.25;;;3.83;;
56718;SDS011;42597;40.636;0.278;2023-11-19T12:05:43;7.30;;;3.45;;
56718;SDS011;42597;40.636;0.278;2023-11-19T12:08:10;5.57;;;3.00;;
56718;SDS011;42597;40.636;0.278;2023-11-19T12:10:46;4.72;;;2.50;;
56718;SDS011;42597;40.636;0.278;2023-11-19T12:13:13;9.18;;;3.63;;
56718;SDS011;42597;40.636;0.278;2023-11-19T12:18:23;7.07;;;3.50;;
56718;SDS011;42597;40.636;0.278;2023-11-19T12:20:51;6.93;;;2.67;;
56718;SDS011;42597;40.636;0.278;2023-11-19T12:23:17;5.78;;;2.97;;
56718;SDS011;42597;40.636;0.278;2023-11-19T12:25:42;6.63;;;3.33;;
56718;SDS011;42597;40.636;0.278;2023-11-19T12:28:13;5.28;;;2.80;;
56718;SDS011;42597;40.636;0.278;2023-11-19T12:30:39;7.63;;;2.58;;
56718;SDS011;42597;40.636;0.278;2023-11-19T12:33:08;5.95;;;2.38;;
56718;SDS011;42597;40.636;0.278;2023-11-19T12:35:41;6.72;;;2.60;;
56718;SDS011;42597;40.636;0.278;2023-11-19T12:38:08;5.00;;;2.67;;
56718;SDS011;42597;40.636;0.278;2023-11-19T12:40:43;6.10;;;3.13;;
56718;SDS011;42597;40.636;0.278;2023-11-19T12:43:09;7.22;;;3.35;;
56718;SDS011;42597;40.636;0.278;2023-11-19T12:45:35;5.03;;;2.95;;
56718;SDS011;42597;40.636;0.278;2023-11-19T12:48:04;6.85;;;3.38;;
56718;SDS011;42597;40.636;0.278;2023-11-19T12:50:49;6.10;;;3.40;;
56718;SDS011;42597;40.636;0.278;2023-11-19T12:53:23;5.90;;;3.42;;
56718;SDS011;42597;40.636;0.278;2023-11-19T12:55:50;8.20;;;4.10;;
56718;SDS011;42597;40.636;0.278;2023-11-19T12:58:29;6.38;;;3.53;;
56718;SDS011;42597;40.636;0.278;2023-11-19T13:01:01;8.52;;;3.78;;
56718;SDS011;42597;40.636;0.278;2023-11-19T13:03:29;9.25;;;3.88;;
56718;SDS011;42597;40.636;0.278;2023-11-19T13:06:06;10.77;;;4.78;;
56718;SDS011;42597;40.636;0.278;2023-11-19T13:08:40;10.45;;;3.70;;
56718;SDS011;42597;40.636;0.278;2023-11-19T13:11:32;9.90;;;5.47;;
56718;SDS011;42597;40.636;0.278;2023-11-19T13:16:26;9.43;;;4.47;;
56718;SDS011;42597;40.636;0.278;2023-11-19T13:18:52;8.20;;;3.80;;
56718;SDS011;42597;40.636;0.278;2023-11-19T13:21:18;9.40;;;4.15;;
56718;SDS011;42597;40.636;0.278;2023-11-19T13:23:44;9.45;;;4.53;;
56718;SDS011;42597;40.636;0.278;2023-11-19T13:26:10;7.53;;;4.28;;
56718;SDS011;42597;40.636;0.278;2023-11-19T13:28:36;11.57;;;4.82;;
56718;SDS011;42597;40.636;0.278;2023-11-19T13:31:03;9.05;;;4.40;;
56718;SDS011;42597;40.636;0.278;2023-11-19T13:33:29;13.55;;;4.25;;
56718;SDS011;42597;40.636;0.278;2023-11-19T13:35:55;6.13;;;2.95;;
56718;SDS011;42597;40.636;0.278;2023-11-19T13:38:21;5.65;;;2.97;;
56718;SDS011;42597;40.636;0.278;2023-11-19T13:40:49;12.93;;;3.35;;
56718;SDS011;42597;40.636;0.278;2023-11-19T13:43:16;8.48;;;3.90;;
56718;SDS011;42597;40.636;0.278;2023-11-19T13:45:41;7.20;;;3.72;;
56718;SDS011;42597;40.636;0.278;2023-11-19T13:48:07;7.07;;;3.85;;
56718;SDS011;42597;40.636;0.278;2023-11-19T13:50:33;12.60;;;5.03;;
56718;SDS011;42597;40.636;0.278;2023-11-19T13:52:59;9.85;;;5.10;;
56718;SDS011;42597;40.636;0.278;2023-11-19T13:55:25;9.57;;;5.40;;
56718;SDS011;42597;40.636;0.278;2023-11-19T13:57:51;8.75;;;5.47;;
56718;SDS011;42597;40.636;0.278;2023-11-19T14:00:16;8.95;;;5.05;;
56718;SDS011;42597;40.636;0.278;2023-11-19T14:02:44;11.38;;;5.40;;
56718;SDS011;42597;40.636;0.278;2023-11-19T14:05:11;11.10;;;3.72;;
56718;SDS011;42597;40.636;0.278;2023-11-19T14:07:38;9.13;;;3.90;;
56718;SDS011;42597;40.636;0.278;2023-11-19T14:10:04;7.40;;;3.45;;
56718;SDS011;42597;40.636;0.278;2023-11-19T14:12:31;9.15;;;4.43;;
56718;SDS011;42597;40.636;0.278;2023-11-19T14:14:57;6.53;;;3.75;;
56718;SDS011;42597;40.636;0.278;2023-11-19T14:17:25;7.95;;;4.15;;
56718;SDS011;42597;40.636;0.278;2023-11-19T14:19:50;6.75;;;3.95;;
56718;SDS011;42597;40.636;0.278;2023-11-19T14:22:16;7.13;;;3.40;;
56718;SDS011;42597;40.636;0.278;2023-11-19T14:24:42;11.88;;;3.80;;
56718;SDS011;42597;40.636;0.278;2023-11-19T14:27:08;7.70;;;3.70;;
56718;SDS011;42597;40.636;0.278;2023-11-19T14:29:35;6.50;;;3.70;;
56718;SDS011;42597;40.636;0.278;2023-11-19T14:32:01;9.13;;;5.47;;
56718;SDS011;42597;40.636;0.278;2023-11-19T14:34:28;11.15;;;5.07;;
56718;SDS011;42597;40.636;0.278;2023-11-19T14:36:55;10.18;;;6.80;;
56718;SDS011;42597;40.636;0.278;2023-11-19T14:39:20;8.80;;;4.18;;
56718;SDS011;42597;40.636;0.278;2023-11-19T14:41:46;13.80;;;6.32;;
56718;SDS011;42597;40.636;0.278;2023-11-19T14:44:12;12.05;;;9.60;;
56718;SDS011;42597;40.636;0.278;2023-11-19T14:46:37;10.05;;;4.57;;
56718;SDS011;42597;40.636;0.278;2023-11-19T14:49:03;7.90;;;5.97;;
56718;SDS011;42597;40.636;0.278;2023-11-19T14:51:29;10.43;;;6.18;;
56718;SDS011;42597;40.636;0.278;2023-11-19T14:53:55;13.73;;;6.32;;
56718;SDS011;42597;40.636;0.278;2023-11-19T14:56:21;11.20;;;7.40;;
56718;SDS011;42597;40.636;0.278;2023-11-19T14:58:46;11.68;;;7.18;;
56718;SDS011;42597;40.636;0.278;2023-11-19T15:01:12;13.77;;;8.75;;
56718;SDS011;42597;40.636;0.278;2023-11-19T15:03:38;12.10;;;6.82;;
56718;SDS011;42597;40.636;0.278;2023-11-19T15:06:04;8.65;;;5.10;;
56718;SDS011;42597;40.636;0.278;2023-11-19T15:08:31;11.52;;;5.45;;
56718;SDS011;42597;40.636;0.278;2023-11-19T15:10:57;10.05;;;6.15;;
56718;SDS011;42597;40.636;0.278;2023-11-19T15:13:23;8.90;;;5.05;;